Time;durP1;ratioP1;P1;durP2;ratioP2;P2;SDS_P1;SDS_P2;PMS_P1;PMS_P2;Temp;Humidity;BMP_temperature;BMP_pressure;BME280_temperature;BME280_humidity;BME280_pressure;Samples;Min_cycle;Max_cycle;Signal;HPM_P1;HPM_P2
2021/05/29 00:00:54;;;;;;;6.63;4.43;;;10.00;99.90;;;;;;6247481;23;20157;-96
2021/05/29 00:03:21;;;;;;;8.07;4.27;;;10.00;99.90;;;;;;6246394;23;20233;-96
2021/05/29 00:05:48;;;;;;;5.30;3.57;;;10.00;99.90;;;;;;6246923;23;20193;-95
2021/05/29 00:08:14;;;;;;;5.57;3.30;;;10.00;99.90;;;;;;6246875;23;20189;-96
2021/05/29 00:10:44;;;;;;;5.05;3.20;;;10.00;99.90;;;;;;6246838;23;20160;-96
2021/05/29 00:13:11;;;;;;;3.60;3.00;;;10.00;99.90;;;;;;6246269;23;20577;-96
2021/05/29 00:15:38;;;;;;;2.90;2.60;;;10.00;99.90;;;;;;6246596;23;20460;-96
2021/05/29 00:18:04;;;;;;;5.73;2.70;;;10.00;99.90;;;;;;6246431;23;20169;-96
2021/05/29 00:20:30;;;;;;;5.17;3.00;;;10.00;99.90;;;;;;6246907;23;20169;-96
2021/05/29 00:22:56;;;;;;;5.40;2.90;;;10.10;99.90;;;;;;6246813;23;20458;-96
2021/05/29 00:25:22;;;;;;;4.43;3.10;;;10.10;99.90;;;;;;6246937;23;20154;-96
2021/05/29 00:27:48;;;;;;;3.50;2.73;;;10.10;99.90;;;;;;6247340;23;20200;-96
2021/05/29 00:30:14;;;;;;;5.83;2.73;;;10.10;99.90;;;;;;6247373;23;20150;-96
2021/05/29 00:32:41;;;;;;;4.60;2.70;;;10.00;99.90;;;;;;6246835;23;20241;-96
2021/05/29 00:35:08;;;;;;;4.27;2.53;;;9.90;99.90;;;;;;6248714;23;20164;-96
2021/05/29 00:37:34;;;;;;;4.53;2.87;;;10.00;99.90;;;;;;6246985;23;20179;-96
2021/05/29 00:40:00;;;;;;;6.80;2.83;;;9.90;99.90;;;;;;6250383;23;20161;-96
2021/05/29 00:42:27;;;;;;;3.93;2.80;;;9.90;99.90;;;;;;6251085;23;20184;-96
2021/05/29 00:44:55;;;;;;;5.20;2.67;;;9.80;99.90;;;;;;6253334;23;20156;-96
2021/05/29 00:47:27;;;;;;;5.77;3.20;;;9.80;99.90;;;;;;6254623;23;20216;-96
2021/05/29 00:50:03;;;;;;;10.27;2.97;;;9.70;99.90;;;;;;6232171;23;20157;-96
2021/05/29 00:52:37;;;;;;;4.80;3.15;;;9.80;99.90;;;;;;6256704;22;20148;-96
2021/05/29 00:55:12;;;;;;;5.30;3.17;;;9.80;99.90;;;;;;6256081;23;20199;-96
2021/05/29 00:57:45;;;;;;;4.63;2.90;;;9.80;99.90;;;;;;6255571;22;20165;-96
2021/05/29 01:00:16;;;;;;;5.23;3.47;;;9.80;99.90;;;;;;6229283;23;20165;-96
2021/05/29 01:02:48;;;;;;;5.17;3.17;;;9.80;99.90;;;;;;6227518;23;20150;-96
2021/05/29 01:05:16;;;;;;;4.27;3.40;;;9.90;99.90;;;;;;6226292;23;20232;-96
2021/05/29 01:07:49;;;;;;;3.87;3.20;;;9.90;99.90;;;;;;6229387;23;20244;-95
2021/05/29 01:10:25;;;;;;;4.43;3.40;;;9.90;99.90;;;;;;6229733;23;20146;-96
2021/05/29 01:12:54;;;;;;;4.63;3.27;;;9.90;99.90;;;;;;6228487;23;20153;-96
2021/05/29 01:15:21;;;;;;;5.67;3.53;;;9.90;99.90;;;;;;6228142;23;20153;-96
2021/05/29 01:17:48;;;;;;;4.03;3.67;;;9.80;99.90;;;;;;6254679;23;20153;-96
2021/05/29 01:20:16;;;;;;;5.13;3.80;;;9.80;99.90;;;;;;6228282;23;20219;-95
2021/05/29 01:22:49;;;;;;;6.53;3.77;;;9.90;99.90;;;;;;6242494;23;20153;-96
2021/05/29 01:25:28;;;;;;;5.47;3.83;;;9.80;99.90;;;;;;6229663;23;20494;-96
2021/05/29 01:28:20;;;;;;;6.03;3.50;;;9.90;99.90;;;;;;6227922;23;20639;-96
2021/05/29 01:30:50;;;;;;;6.27;4.13;;;9.80;99.90;;;;;;6227124;23;20154;-96
2021/05/29 01:33:24;;;;;;;6.65;3.85;;;9.90;99.90;;;;;;6233112;23;20168;-96
2021/05/29 01:35:53;;;;;;;5.50;3.60;;;9.90;99.90;;;;;;6258379;23;20149;-96
2021/05/29 01:38:23;;;;;;;5.27;3.87;;;9.90;99.90;;;;;;6258884;23;20153;-96
2021/05/29 01:40:51;;;;;;;6.30;3.83;;;9.90;99.90;;;;;;6233787;23;20165;-96
2021/05/29 01:43:19;;;;;;;7.83;4.67;;;9.90;99.90;;;;;;6257667;23;20161;-96
2021/05/29 01:45:48;;;;;;;5.53;4.37;;;9.90;99.90;;;;;;6231905;23;20153;-96
2021/05/29 01:48:20;;;;;;;5.40;4.30;;;9.90;99.90;;;;;;6262470;23;20220;-96
2021/05/29 01:50:49;;;;;;;6.60;4.50;;;9.90;99.90;;;;;;6261117;23;20159;-96
2021/05/29 01:53:20;;;;;;;7.03;4.57;;;9.90;99.90;;;;;;6261457;23;20149;-96
2021/05/29 01:55:50;;;;;;;5.73;4.10;;;9.80;99.90;;;;;;6210341;23;20166;-96
2021/05/29 01:58:24;;;;;;;6.53;4.53;;;9.80;99.90;;;;;;6236017;22;20245;-96
2021/05/29 02:00:50;;;;;;;8.37;4.70;;;9.80;99.90;;;;;;6236908;23;20228;-96
2021/05/29 02:03:16;;;;;;;4.30;3.90;;;9.80;99.90;;;;;;6213004;23;20466;-96
2021/05/29 02:05:43;;;;;;;8.50;4.27;;;9.80;99.90;;;;;;6238264;23;20259;-96
2021/05/29 02:08:12;;;;;;;7.27;4.87;;;9.80;99.90;;;;;;6237546;23;20157;-96
2021/05/29 02:10:43;;;;;;;7.22;4.47;;;9.80;99.90;;;;;;6261346;22;20555;-96
2021/05/29 02:13:31;;;;;;;7.23;4.13;;;9.80;99.90;;;;;;6238143;23;20161;-96
2021/05/29 02:15:58;;;;;;;5.63;4.20;;;9.80;99.90;;;;;;6261266;23;20167;-96
2021/05/29 02:18:26;;;;;;;6.87;4.50;;;9.80;99.90;;;;;;6264317;22;20184;-95
2021/05/29 02:21:02;;;;;;;8.73;5.33;;;9.80;99.90;;;;;;6262441;23;20204;-96
2021/05/29 02:23:38;;;;;;;7.87;4.93;;;9.80;99.90;;;;;;6262071;23;20749;-96
2021/05/29 02:26:14;;;;;;;7.63;4.80;;;9.80;99.90;;;;;;6263405;23;20181;-96
2021/05/29 02:28:44;;;;;;;7.83;5.50;;;9.80;99.90;;;;;;6264086;23;20153;-96
2021/05/29 02:31:13;;;;;;;7.10;4.50;;;9.80;99.90;;;;;;6258268;23;20217;-96
2021/05/29 02:33:43;;;;;;;7.13;4.93;;;9.80;99.90;;;;;;6264717;22;20149;-95
2021/05/29 02:36:11;;;;;;;7.33;4.60;;;9.80;99.90;;;;;;6262549;22;20204;-96
2021/05/29 02:38:39;;;;;;;8.03;5.17;;;9.80;99.90;;;;;;6263382;23;20157;-96
2021/05/29 02:41:12;;;;;;;6.17;4.77;;;9.80;99.90;;;;;;6235279;23;20153;-96
2021/05/29 02:43:39;;;;;;;8.13;5.33;;;9.80;99.90;;;;;;6261129;23;20522;-96
2021/05/29 02:46:08;;;;;;;8.17;5.60;;;9.80;99.90;;;;;;6235818;23;20176;-96
2021/05/29 02:48:38;;;;;;;7.03;5.10;;;9.80;99.90;;;;;;6260187;23;20189;-96
2021/05/29 02:51:07;;;;;;;8.40;5.07;;;9.80;99.90;;;;;;6235991;23;20189;-96
2021/05/29 02:53:34;;;;;;;7.77;5.27;;;9.80;99.90;;;;;;6236126;23;20165;-96
2021/05/29 02:56:21;;;;;;;9.70;5.90;;;9.80;99.90;;;;;;6261825;23;20165;-96
2021/05/29 02:58:51;;;;;;;8.03;5.50;;;9.80;99.90;;;;;;6241073;23;20193;-96
2021/05/29 03:01:22;;;;;;;7.13;5.53;;;9.80;99.90;;;;;;6213071;23;20165;-96
2021/05/29 03:03:50;;;;;;;9.00;5.73;;;9.80;99.90;;;;;;6226968;23;20157;-96
2021/05/29 03:06:21;;;;;;;8.43;5.25;;;9.80;99.90;;;;;;6238123;22;20165;-96
2021/05/29 03:08:49;;;;;;;7.35;5.32;;;9.80;99.90;;;;;;6262176;22;20236;-96
2021/05/29 03:11:15;;;;;;;8.13;5.30;;;9.80;99.90;;;;;;6210453;23;20164;-96
2021/05/29 03:13:41;;;;;;;8.60;5.47;;;9.80;99.90;;;;;;6256368;23;20176;-96
2021/05/29 03:16:09;;;;;;;8.93;5.70;;;9.80;99.90;;;;;;6198371;23;20232;-96
2021/05/29 03:18:37;;;;;;;13.93;6.30;;;9.80;99.90;;;;;;6236477;23;20568;-96
2021/05/29 03:21:04;;;;;;;9.10;6.38;;;9.70;99.90;;;;;;6262606;23;20158;-96
2021/05/29 03:23:30;;;;;;;9.53;5.90;;;9.70;99.90;;;;;;6264947;23;20161;-96
2021/05/29 03:25:59;;;;;;;9.57;6.23;;;9.80;99.90;;;;;;6263839;23;20181;-96
2021/05/29 03:28:24;;;;;;;8.47;6.30;;;9.70;99.90;;;;;;6239228;23;20161;-95
2021/05/29 03:30:53;;;;;;;6.77;5.57;;;9.70;99.90;;;;;;6264860;23;20231;-96
2021/05/29 03:33:19;;;;;;;8.63;6.30;;;9.80;99.90;;;;;;6261287;23;20459;-95
2021/05/29 03:35:44;;;;;;;9.03;6.30;;;9.70;99.90;;;;;;6262313;23;20153;-96
2021/05/29 03:38:12;;;;;;;8.17;5.97;;;9.80;99.90;;;;;;6262786;23;20200;-96
2021/05/29 03:40:42;;;;;;;7.90;5.77;;;9.80;99.90;;;;;;6241272;23;20218;-96
2021/05/29 03:43:08;;;;;;;9.90;5.37;;;9.80;99.90;;;;;;6259885;23;20166;-96
2021/05/29 03:45:33;;;;;;;7.87;5.67;;;9.90;99.90;;;;;;6255067;23;20168;-96
2021/05/29 03:47:59;;;;;;;8.50;5.97;;;9.90;99.90;;;;;;6256644;23;20157;-96
2021/05/29 03:50:26;;;;;;;8.33;5.87;;;9.90;99.90;;;;;;6254063;23;20473;-96
2021/05/29 03:52:54;;;;;;;8.87;6.37;;;10.00;99.90;;;;;;6253980;23;20160;-96
2021/05/29 03:55:22;;;;;;;8.33;5.90;;;10.00;99.90;;;;;;6258949;23;20202;-96
2021/05/29 03:57:50;;;;;;;8.87;5.80;;;10.00;99.90;;;;;;6254207;23;20244;-96
2021/05/29 04:00:19;;;;;;;10.57;6.33;;;10.00;99.90;;;;;;6253255;23;20229;-96
2021/05/29 04:02:48;;;;;;;9.07;6.53;;;10.00;99.90;;;;;;6253431;23;20150;-96
2021/05/29 04:05:15;;;;;;;8.37;6.27;;;10.00;99.90;;;;;;6255595;23;20153;-96
2021/05/29 04:07:41;;;;;;;7.33;6.20;;;10.00;99.90;;;;;;6255766;23;20643;-96
2021/05/29 04:10:10;;;;;;;9.03;6.20;;;10.00;99.90;;;;;;6229270;23;20157;-96
2021/05/29 04:12:38;;;;;;;10.07;6.73;;;10.00;99.90;;;;;;6256728;23;20279;-96
2021/05/29 04:15:05;;;;;;;9.67;6.10;;;10.00;99.90;;;;;;6203633;23;20184;-96
2021/05/29 04:17:31;;;;;;;7.82;6.20;;;9.90;99.90;;;;;;6232323;23;20157;-96
2021/05/29 04:19:57;;;;;;;7.75;6.10;;;10.00;99.90;;;;;;6256124;23;20245;-96
2021/05/29 04:22:25;;;;;;;11.57;6.27;;;9.90;99.90;;;;;;6256820;23;20171;-96
2021/05/29 04:24:53;;;;;;;9.40;5.80;;;10.00;99.90;;;;;;6258140;23;20216;-96
2021/05/29 04:27:19;;;;;;;7.60;4.97;;;10.00;99.90;;;;;;6260779;23;20192;-96
2021/05/29 04:29:46;;;;;;;9.00;5.20;;;10.00;99.90;;;;;;6262625;23;20588;-96
2021/05/29 04:32:13;;;;;;;8.45;5.15;;;10.00;99.90;;;;;;6260516;23;20164;-96
2021/05/29 04:34:39;;;;;;;7.32;5.05;;;10.00;99.90;;;;;;6234743;23;20176;-96
2021/05/29 04:37:05;;;;;;;8.20;5.03;;;10.10;99.90;;;;;;6259270;23;20477;-96
2021/05/29 04:39:32;;;;;;;9.23;4.87;;;10.10;99.90;;;;;;6255015;23;20152;-96
2021/05/29 04:41:58;;;;;;;7.93;5.40;;;10.10;99.90;;;;;;6255771;23;20165;-96
2021/05/29 04:44:25;;;;;;;8.43;5.40;;;10.10;99.90;;;;;;6257986;23;20152;-96
2021/05/29 04:46:52;;;;;;;9.05;5.18;;;10.10;99.90;;;;;;6254360;23;20275;-96
2021/05/29 04:49:22;;;;;;;9.07;5.23;;;10.10;99.90;;;;;;6251316;23;20507;-96
2021/05/29 04:51:49;;;;;;;9.20;4.97;;;10.10;99.90;;;;;;6251076;23;20222;-95
2021/05/29 04:54:16;;;;;;;6.80;4.47;;;10.10;99.90;;;;;;6251727;23;20158;-96
2021/05/29 04:56:41;;;;;;;6.57;4.50;;;10.10;99.90;;;;;;6247927;23;20487;-96
2021/05/29 04:59:07;;;;;;;8.10;4.70;;;10.10;99.90;;;;;;6248294;23;20270;-96
2021/05/29 05:01:33;;;;;;;6.33;4.57;;;10.10;99.90;;;;;;6248903;23;20157;-96
2021/05/29 05:04:00;;;;;;;6.50;4.47;;;10.10;99.90;;;;;;6248401;23;20153;-96
2021/05/29 05:06:27;;;;;;;6.40;4.43;;;10.00;99.90;;;;;;6248179;23;20220;-96
2021/05/29 05:08:53;;;;;;;10.60;4.80;;;10.00;99.90;;;;;;6247442;23;20153;-96
2021/05/29 05:11:19;;;;;;;8.20;4.23;;;10.00;99.90;;;;;;6247883;23;20161;-95
2021/05/29 05:13:45;;;;;;;5.93;4.35;;;10.00;99.90;;;;;;6221591;23;20303;-96
2021/05/29 05:16:11;;;;;;;8.73;4.83;;;10.00;99.90;;;;;;6246722;23;20156;-96
2021/05/29 05:18:37;;;;;;;8.57;4.73;;;10.00;99.90;;;;;;6247509;23;20169;-96
2021/05/29 05:21:03;;;;;;;6.30;4.35;;;10.00;99.90;;;;;;6246624;23;20233;-96
2021/05/29 05:23:29;;;;;;;7.53;4.80;;;10.00;99.90;;;;;;6246143;23;20165;-96
2021/05/29 05:25:55;;;;;;;8.40;4.40;;;10.00;99.90;;;;;;6248529;23;20181;-96
2021/05/29 05:28:26;;;;;;;6.67;4.43;;;10.10;99.90;;;;;;6249013;23;20161;-96
2021/05/29 05:30:57;;;;;;;8.17;4.80;;;10.10;99.90;;;;;;6248560;23;20146;-96
2021/05/29 05:33:24;;;;;;;7.97;4.47;;;10.10;99.90;;;;;;6247757;23;20212;-96
2021/05/29 05:35:51;;;;;;;7.47;4.03;;;10.10;99.90;;;;;;6247634;23;20156;-96
2021/05/29 05:38:17;;;;;;;7.47;4.83;;;10.10;99.90;;;;;;6247982;23;20161;-96
2021/05/29 05:40:43;;;;;;;9.10;4.43;;;10.00;99.90;;;;;;6248137;23;20217;-95
2021/05/29 05:43:08;;;;;;;8.20;4.77;;;10.10;99.90;;;;;;6247700;23;20595;-95
2021/05/29 05:45:34;;;;;;;8.33;4.43;;;10.10;99.90;;;;;;6247946;23;20149;-96
2021/05/29 05:48:00;;;;;;;7.60;4.40;;;10.00;99.90;;;;;;6247641;23;20565;-95
2021/05/29 05:50:26;;;;;;;8.27;5.23;;;10.00;99.90;;;;;;6247529;23;20511;-96
2021/05/29 05:52:52;;;;;;;7.17;3.97;;;10.00;99.90;;;;;;6247421;23;20553;-96
2021/05/29 05:55:18;;;;;;;7.40;4.73;;;10.10;99.90;;;;;;6247747;23;20212;-96
2021/05/29 05:57:43;;;;;;;6.57;4.67;;;10.10;99.90;;;;;;6247727;23;20162;-96
2021/05/29 06:00:12;;;;;;;7.47;4.80;;;10.10;99.90;;;;;;6247890;23;20208;-96
2021/05/29 06:02:38;;;;;;;7.18;5.00;;;10.10;99.90;;;;;;6247691;23;20177;-96
2021/05/29 06:05:05;;;;;;;9.93;5.10;;;10.10;99.90;;;;;;6247724;23;20663;-96
2021/05/29 06:07:31;;;;;;;8.77;4.70;;;10.10;99.90;;;;;;6247556;23;20188;-96
2021/05/29 06:09:57;;;;;;;9.20;4.75;;;10.10;99.90;;;;;;6222738;23;20153;-96
2021/05/29 06:12:22;;;;;;;7.60;4.50;;;10.10;99.90;;;;;;6247057;23;20157;-96
2021/05/29 06:20:17;;;;;;;9.23;4.67;;;10.20;99.90;;;;;;6250146;23;20471;-96
2021/05/29 06:22:43;;;;;;;6.40;4.47;;;10.20;99.90;;;;;;6247622;23;20164;-96
2021/05/29 06:25:11;;;;;;;6.80;4.15;;;10.20;99.90;;;;;;6248613;23;20149;-96
2021/05/29 06:27:37;;;;;;;6.27;4.50;;;10.30;99.90;;;;;;6250440;23;20251;-96
2021/05/29 06:30:05;;;;;;;7.03;4.40;;;10.30;99.90;;;;;;6222325;23;20211;-96
2021/05/29 06:32:31;;;;;;;11.53;4.87;;;10.30;99.90;;;;;;6221960;23;20185;-96
2021/05/29 06:34:57;;;;;;;8.90;4.17;;;10.40;99.90;;;;;;6222354;23;20156;-96
2021/05/29 06:37:23;;;;;;;9.17;4.93;;;10.30;99.90;;;;;;6223802;23;20164;-96
2021/05/29 06:39:49;;;;;;;8.73;4.50;;;10.30;99.90;;;;;;6222365;23;20173;-95
2021/05/29 06:42:15;;;;;;;5.47;4.07;;;10.30;99.90;;;;;;6221980;23;20166;-96
2021/05/29 06:44:41;;;;;;;8.77;4.73;;;10.30;99.90;;;;;;6222098;23;20520;-96
2021/05/29 06:47:06;;;;;;;7.43;4.50;;;10.30;99.90;;;;;;6223316;23;20193;-96
2021/05/29 06:49:35;;;;;;;10.03;5.00;;;10.30;99.90;;;;;;6222845;23;20160;-96
2021/05/29 06:52:06;;;;;;;10.27;4.87;;;10.30;99.90;;;;;;6225099;23;20296;-96
2021/05/29 06:54:46;;;;;;;9.13;4.57;;;10.20;99.90;;;;;;6251719;23;20211;-96
2021/05/29 06:59:56;;;;;;;9.03;4.40;;;10.20;99.90;;;;;;6253782;22;20195;-96
2021/05/29 07:02:25;;;;;;;11.87;5.03;;;10.20;99.90;;;;;;6222309;23;20236;-95
2021/05/29 07:04:52;;;;;;;7.93;4.60;;;10.30;99.90;;;;;;6222346;23;20157;-96
2021/05/29 07:07:18;;;;;;;7.97;4.47;;;10.40;99.90;;;;;;6223631;23;20185;-95
2021/05/29 07:09:44;;;;;;;7.63;4.57;;;10.40;99.90;;;;;;6223587;23;20250;-96
2021/05/29 07:12:10;;;;;;;7.37;4.87;;;10.40;99.90;;;;;;6224158;23;20565;-96
2021/05/29 07:14:36;;;;;;;9.90;4.70;;;10.40;99.90;;;;;;6223899;23;20153;-96
2021/05/29 07:17:05;;;;;;;8.57;4.83;;;10.50;99.90;;;;;;6222359;23;20153;-96
2021/05/29 07:19:30;;;;;;;7.53;4.20;;;10.50;99.90;;;;;;6223340;23;20153;-96
2021/05/29 07:21:56;;;;;;;8.97;4.50;;;10.50;99.90;;;;;;6223866;23;20210;-96
2021/05/29 07:24:23;;;;;;;8.87;4.73;;;10.50;99.90;;;;;;6222919;23;20180;-96
2021/05/29 07:26:51;;;;;;;7.70;4.40;;;10.50;99.90;;;;;;6249627;23;20177;-95
2021/05/29 07:29:17;;;;;;;8.17;4.53;;;10.50;99.90;;;;;;6222576;23;20157;-96
2021/05/29 07:31:43;;;;;;;9.90;4.43;;;10.50;99.90;;;;;;6221701;23;20164;-95
2021/05/29 07:34:09;;;;;;;7.57;4.43;;;10.50;99.90;;;;;;6222304;23;20439;-95
2021/05/29 07:36:35;;;;;;;8.00;4.67;;;10.60;99.90;;;;;;6222494;23;20522;-96
2021/05/29 07:39:01;;;;;;;9.83;4.67;;;10.60;99.90;;;;;;6221953;23;20158;-97
2021/05/29 07:41:28;;;;;;;9.43;7.00;;;10.60;99.90;;;;;;6249537;23;20561;-96
2021/05/29 07:43:56;;;;;;;9.43;5.43;;;10.60;99.90;;;;;;6223466;23;20157;-96
2021/05/29 07:46:22;;;;;;;7.55;4.80;;;10.60;99.90;;;;;;6222377;23;20177;-96
2021/05/29 07:48:51;;;;;;;8.23;5.05;;;10.60;99.90;;;;;;6223508;23;20168;-96
2021/05/29 07:51:18;;;;;;;7.97;4.90;;;10.60;99.90;;;;;;6224502;23;20161;-96
2021/05/29 07:53:46;;;;;;;6.20;4.67;;;10.60;99.90;;;;;;6249688;23;20153;-96
2021/05/29 07:56:14;;;;;;;10.23;5.03;;;10.60;99.90;;;;;;6222826;23;20452;-96
2021/05/29 07:58:42;;;;;;;9.97;4.90;;;10.70;99.90;;;;;;6224362;23;20624;-95
2021/05/29 08:01:10;;;;;;;8.00;4.55;;;10.70;99.90;;;;;;6248189;23;20157;-96
2021/05/29 08:03:37;;;;;;;7.75;4.50;;;10.70;99.90;;;;;;6247190;23;20168;-96
2021/05/29 08:06:08;;;;;;;8.93;4.93;;;10.70;99.90;;;;;;6249079;23;20177;-96
2021/05/29 08:08:35;;;;;;;10.73;4.90;;;10.80;99.90;;;;;;6224197;23;20237;-96
2021/05/29 08:11:03;;;;;;;9.32;4.60;;;10.80;99.90;;;;;;6247689;23;20153;-96
2021/05/29 08:13:29;;;;;;;9.27;5.23;;;10.80;99.90;;;;;;6248183;23;20177;-96
2021/05/29 08:15:55;;;;;;;7.50;4.67;;;10.80;99.90;;;;;;6246761;23;20157;-96
2021/05/29 08:18:21;;;;;;;7.00;4.57;;;10.90;99.90;;;;;;6245793;23;20168;-96
2021/05/29 08:20:49;;;;;;;11.40;5.07;;;10.90;99.90;;;;;;6247490;23;20161;-96
2021/05/29 08:23:15;;;;;;;6.75;4.30;;;10.90;99.90;;;;;;6247598;23;20584;-96
2021/05/29 08:25:41;;;;;;;6.93;4.78;;;10.90;99.90;;;;;;6248352;23;20157;-96
2021/05/29 08:28:07;;;;;;;16.05;4.85;;;11.00;99.90;;;;;;6249235;23;20231;-96
2021/05/29 08:30:33;;;;;;;9.20;4.60;;;11.00;99.90;;;;;;6245635;23;20215;-96
2021/05/29 08:32:59;;;;;;;12.70;5.38;;;11.10;99.90;;;;;;6246165;23;20208;-96
2021/05/29 08:35:25;;;;;;;7.68;4.80;;;11.10;99.90;;;;;;6247284;23;20153;-95
2021/05/29 08:37:51;;;;;;;8.55;4.53;;;11.10;99.90;;;;;;6245968;23;20221;-96
2021/05/29 08:40:19;;;;;;;10.30;4.85;;;11.10;99.90;;;;;;6227549;23;20161;-96
2021/05/29 08:42:46;;;;;;;8.93;5.30;;;11.20;99.90;;;;;;6249691;23;20227;-96
2021/05/29 08:45:14;;;;;;;8.57;4.93;;;11.20;99.90;;;;;;6249398;23;20161;-96
2021/05/29 08:47:40;;;;;;;7.85;4.78;;;11.20;99.90;;;;;;6250215;23;20189;-96
2021/05/29 08:50:07;;;;;;;7.15;5.13;;;11.30;99.90;;;;;;6249413;23;20173;-95
2021/05/29 08:52:37;;;;;;;9.45;5.15;;;11.30;99.90;;;;;;6249752;23;20157;-96
2021/05/29 08:55:10;;;;;;;9.90;5.40;;;11.30;99.90;;;;;;6249800;23;20155;-96
2021/05/29 08:57:37;;;;;;;7.75;5.25;;;11.20;99.90;;;;;;6250128;23;20141;-96
2021/05/29 09:00:08;;;;;;;8.75;5.13;;;11.20;99.90;;;;;;6250634;22;20209;-96
2021/05/29 09:02:53;;;;;;;9.53;5.57;;;11.10;99.90;;;;;;6251145;23;20185;-96
2021/05/29 09:05:19;;;;;;;8.50;4.85;;;11.10;99.90;;;;;;6250494;23;20312;-96
2021/05/29 09:08:00;;;;;;;8.03;5.20;;;11.10;99.90;;;;;;6251535;23;20188;-95
2021/05/29 09:10:26;;;;;;;8.63;5.33;;;11.20;99.90;;;;;;6251541;23;20228;-96
2021/05/29 09:13:11;;;;;;;9.27;5.63;;;11.10;99.90;;;;;;6251577;23;20577;-96
2021/05/29 09:15:45;;;;;;;8.65;5.22;;;11.10;99.90;;;;;;6250796;23;20153;-96
2021/05/29 09:18:35;;;;;;;8.38;5.13;;;11.10;99.90;;;;;;6250429;22;20160;-96
2021/05/29 09:21:31;;;;;;;10.45;5.43;;;11.20;99.90;;;;;;6250021;23;20173;-96
2021/05/29 09:24:11;;;;;;;6.20;4.68;;;11.20;99.90;;;;;;6250451;23;20149;-96
2021/05/29 09:26:51;;;;;;;8.55;5.30;;;11.20;99.90;;;;;;6249939;23;20177;-96
2021/05/29 09:29:25;;;;;;;9.18;5.32;;;11.20;99.90;;;;;;6249942;23;20466;-96
2021/05/29 09:32:03;;;;;;;8.80;5.13;;;11.30;99.90;;;;;;6249245;23;20572;-96
2021/05/29 09:34:39;;;;;;;11.47;5.20;;;11.30;99.90;;;;;;6249489;23;20200;-96
2021/05/29 09:37:28;;;;;;;8.63;5.30;;;11.40;99.90;;;;;;6249365;23;20569;-96
2021/05/29 09:39:57;;;;;;;6.75;4.82;;;11.30;99.90;;;;;;6230197;23;20157;-96
2021/05/29 09:42:28;;;;;;;9.80;5.43;;;11.30;99.90;;;;;;6254179;23;20624;-96
2021/05/29 09:44:54;;;;;;;9.15;5.85;;;11.20;99.90;;;;;;6262358;23;20164;-96
2021/05/29 09:47:20;;;;;;;8.65;4.88;;;11.20;99.90;;;;;;6262762;22;20161;-96
2021/05/29 09:49:53;;;;;;;10.25;5.45;;;11.20;99.90;;;;;;6262041;23;20153;-95
2021/05/29 09:52:30;;;;;;;12.40;6.15;;;11.20;99.90;;;;;;6259206;23;20161;-96
2021/05/29 09:54:59;;;;;;;14.95;6.57;;;11.20;99.90;;;;;;6258351;23;20145;-96
2021/05/29 09:57:28;;;;;;;11.40;7.03;;;11.20;99.90;;;;;;6259433;23;20157;-96
2021/05/29 10:00:06;;;;;;;8.93;6.57;;;11.30;99.90;;;;;;6254118;22;20581;-96
2021/05/29 10:02:34;;;;;;;11.38;6.70;;;11.20;99.90;;;;;;6259085;23;20151;-96
2021/05/29 10:05:01;;;;;;;12.60;6.20;;;11.20;99.90;;;;;;6256948;23;20590;-96
2021/05/29 10:07:40;;;;;;;9.23;5.53;;;11.20;99.90;;;;;;6255114;23;20185;-96
2021/05/29 10:10:07;;;;;;;11.98;6.05;;;11.20;99.90;;;;;;6259565;23;20188;-96
2021/05/29 10:12:33;;;;;;;13.02;6.72;;;11.00;99.90;;;;;;6258153;23;20161;-96
2021/05/29 10:15:00;;;;;;;19.23;7.47;;;11.00;99.90;;;;;;6235580;23;20193;-96
2021/05/29 10:17:30;;;;;;;12.73;6.10;;;11.00;99.90;;;;;;6261091;23;20150;-96
2021/05/29 10:19:57;;;;;;;13.55;7.00;;;11.00;99.90;;;;;;6210859;23;20176;-96
2021/05/29 10:22:25;;;;;;;14.30;7.07;;;11.10;99.90;;;;;;6260823;23;20153;-96
2021/05/29 10:24:51;;;;;;;15.52;7.57;;;11.10;99.90;;;;;;6258030;23;20312;-96
2021/05/29 10:27:30;;;;;;;11.55;6.90;;;11.10;99.90;;;;;;6263058;23;20189;-96
2021/05/29 10:29:59;;;;;;;12.77;6.97;;;11.00;99.90;;;;;;6258128;23;20145;-96
2021/05/29 10:32:25;;;;;;;14.87;7.23;;;11.10;99.90;;;;;;6260484;23;20164;-96
2021/05/29 10:35:11;;;;;;;13.10;7.30;;;11.00;99.90;;;;;;6258122;23;20179;-96
2021/05/29 10:37:52;;;;;;;12.93;7.30;;;11.10;99.90;;;;;;6254224;23;20153;-96
2021/05/29 10:40:25;;;;;;;11.02;6.43;;;11.10;99.90;;;;;;6255502;23;20145;-96
2021/05/29 10:43:08;;;;;;;10.95;7.40;;;11.10;99.90;;;;;;6258825;23;20163;-96
2021/05/29 10:45:37;;;;;;;13.00;7.30;;;11.10;99.90;;;;;;6258931;23;20141;-96
2021/05/29 10:48:13;;;;;;;11.70;7.20;;;11.20;99.90;;;;;;6257508;23;20503;-96
2021/05/29 10:53:48;;;;;;;12.52;6.40;;;11.20;99.90;;;;;;6172051;23;20183;-96
2021/05/29 10:56:28;;;;;;;12.93;6.57;;;11.20;99.90;;;;;;6243732;23;20142;-96
2021/05/29 10:59:15;;;;;;;9.17;5.47;;;11.30;99.90;;;;;;6258218;22;20189;-96
2021/05/29 11:01:49;;;;;;;9.27;6.03;;;11.40;99.90;;;;;;6261601;23;20152;-96
2021/05/29 11:04:15;;;;;;;8.63;5.37;;;11.50;99.90;;;;;;6262238;23;20195;-96
2021/05/29 11:07:22;;;;;;;9.55;5.70;;;11.50;99.90;;;;;;6264850;23;20189;-96
2021/05/29 11:09:56;;;;;;;10.82;6.07;;;11.60;99.90;;;;;;6259554;23;20150;-95
2021/05/29 11:12:53;;;;;;;8.27;5.65;;;11.60;99.90;;;;;;6257049;23;20168;-96
2021/05/29 11:15:57;;;;;;;14.25;6.55;;;11.70;99.90;;;;;;6257781;23;20150;-96
2021/05/29 11:18:23;;;;;;;9.38;5.70;;;11.60;99.90;;;;;;6256778;23;20153;-96
2021/05/29 11:21:15;;;;;;;9.18;5.60;;;11.60;99.90;;;;;;6259440;23;20168;-96
2021/05/29 11:23:41;;;;;;;12.63;5.35;;;11.60;99.90;;;;;;6253127;23;20165;-95
2021/05/29 11:26:07;;;;;;;10.60;6.05;;;11.60;99.90;;;;;;6260473;23;20204;-96
2021/05/29 11:28:34;;;;;;;8.07;5.57;;;11.60;99.90;;;;;;6259746;23;20160;-96
2021/05/29 11:31:01;;;;;;;9.88;5.85;;;11.60;99.90;;;;;;6256836;23;20180;-96
2021/05/29 11:33:28;;;;;;;8.00;5.25;;;11.70;99.90;;;;;;6256187;23;20191;-96
2021/05/29 11:35:56;;;;;;;13.68;5.60;;;11.80;99.90;;;;;;6208218;23;20161;-96
2021/05/29 11:38:33;;;;;;;8.65;5.40;;;11.80;99.90;;;;;;6257227;23;20138;-96
2021/05/29 11:41:16;;;;;;;8.25;5.38;;;11.70;99.90;;;;;;6260356;23;20149;-96
2021/05/29 11:43:53;;;;;;;8.50;5.70;;;11.70;99.90;;;;;;6259784;23;20145;-96
2021/05/29 11:46:27;;;;;;;8.13;5.57;;;11.70;99.90;;;;;;6256466;23;20211;-96
2021/05/29 11:49:06;;;;;;;10.57;5.80;;;11.70;99.90;;;;;;6256994;23;20178;-95
2021/05/29 11:51:41;;;;;;;7.82;5.57;;;11.70;99.90;;;;;;6254201;23;20225;-96
2021/05/29 11:54:20;;;;;;;8.52;5.55;;;11.80;99.90;;;;;;6259721;23;20172;-96
2021/05/29 11:56:51;;;;;;;9.75;5.35;;;11.70;99.90;;;;;;6256545;23;20164;-96
2021/05/29 11:59:19;;;;;;;9.43;5.43;;;11.80;99.90;;;;;;6260313;22;20187;-96
2021/05/29 12:01:51;;;;;;;13.43;6.20;;;11.70;99.90;;;;;;6257740;23;20225;-96
2021/05/29 12:04:31;;;;;;;10.75;6.10;;;11.70;99.90;;;;;;6231482;23;20157;-96
2021/05/29 12:07:02;;;;;;;8.85;5.32;;;11.80;99.90;;;;;;6233419;23;20184;-95
2021/05/29 12:09:30;;;;;;;8.75;4.93;;;11.80;99.90;;;;;;6254614;23;20571;-96
2021/05/29 12:11:56;;;;;;;9.85;5.57;;;11.80;99.90;;;;;;6257589;23;20205;-96
2021/05/29 12:14:24;;;;;;;7.70;5.60;;;11.80;99.90;;;;;;6254934;23;20160;-96
2021/05/29 12:17:01;;;;;;;9.00;5.88;;;11.90;99.90;;;;;;6250294;23;20157;-96
2021/05/29 12:19:44;;;;;;;8.85;5.38;;;11.90;99.90;;;;;;6254362;23;20153;-96
2021/05/29 12:22:22;;;;;;;7.07;4.88;;;12.00;99.90;;;;;;6257652;23;20169;-96
2021/05/29 12:24:53;;;;;;;8.30;4.88;;;12.00;99.90;;;;;;6254405;23;20153;-96
2021/05/29 12:27:21;;;;;;;9.07;5.95;;;12.00;99.90;;;;;;6255992;23;20184;-97
2021/05/29 12:29:55;;;;;;;7.70;5.10;;;12.00;99.90;;;;;;6257137;23;20149;-96
2021/05/29 12:32:50;;;;;;;6.80;5.15;;;12.00;99.90;;;;;;6251234;23;20157;-96
2021/05/29 12:35:35;;;;;;;8.68;5.40;;;12.00;99.90;;;;;;6247800;23;20161;-96
2021/05/29 12:38:30;;;;;;;8.15;5.28;;;12.10;99.90;;;;;;6254219;23;20211;-96
2021/05/29 12:41:00;;;;;;;8.02;5.07;;;12.10;99.90;;;;;;6221011;23;20153;-96
2021/05/29 12:43:27;;;;;;;8.93;5.50;;;12.10;99.90;;;;;;6254490;23;20176;-96
2021/05/29 12:45:53;;;;;;;9.35;5.70;;;12.10;99.90;;;;;;6255249;23;20224;-96
2021/05/29 12:48:19;;;;;;;9.77;5.35;;;12.10;99.90;;;;;;6252011;23;20239;-96
2021/05/29 12:51:28;;;;;;;6.80;5.57;;;12.10;99.90;;;;;;6251895;23;20157;-96
2021/05/29 12:53:51;;;;;;;9.60;5.85;;;12.10;99.90;;;;;;6252319;22;20157;-96
2021/05/29 12:56:18;;;;;;;10.38;6.13;;;12.10;99.90;;;;;;6251233;23;20157;-96
2021/05/29 12:59:05;;;;;;;8.32;5.75;;;12.10;99.90;;;;;;6256920;22;20188;-96
2021/05/29 13:09:49;;;;;;;10.25;5.50;;;12.20;99.90;;;;;;6254719;23;20264;-96
2021/05/29 13:12:17;;;;;;;8.45;5.25;;;12.20;99.90;;;;;;6251505;23;20153;-95
2021/05/29 13:14:46;;;;;;;8.63;6.05;;;12.30;99.90;;;;;;6255873;23;20149;-96
2021/05/29 13:17:30;;;;;;;7.35;5.32;;;12.30;99.90;;;;;;6255089;23;20157;-96
2021/05/29 13:20:06;;;;;;;8.55;5.03;;;12.30;99.90;;;;;;6253248;23;20177;-95
2021/05/29 13:22:37;;;;;;;6.18;4.70;;;12.40;99.90;;;;;;6254046;23;20141;-96